sensor_id;sensor_type;location;lat;lon;timestamp;pressure;altitude;pressure_sealevel;temperature;humidity
24752;BME280;27246;52.376;4.628;2023-04-15T00:01:01;100770.72;;;10.30;61.76
24752;BME280;27246;52.376;4.628;2023-04-15T00:06:03;100775.44;;;10.21;62.42
24752;BME280;27246;52.376;4.628;2023-04-15T00:11:08;100775.63;;;10.20;62.29
24752;BME280;27246;52.376;4.628;2023-04-15T00:16:10;100772.69;;;10.21;61.63
24752;BME280;27246;52.376;4.628;2023-04-15T00:21:12;100771.84;;;10.21;61.13
24752;BME280;27246;52.376;4.628;2023-04-15T00:26:14;100776.00;;;10.17;60.96
24752;BME280;27246;52.376;4.628;2023-04-15T00:31:16;100769.31;;;10.11;60.29
24752;BME280;27246;52.376;4.628;2023-04-15T00:36:19;100773.09;;;10.10;59.32
24752;BME280;27246;52.376;4.628;2023-04-15T00:41:21;100786.25;;;10.00;58.49
24752;BME280;27246;52.376;4.628;2023-04-15T00:46:26;100782.75;;;10.06;58.42
24752;BME280;27246;52.376;4.628;2023-04-15T00:51:29;100781.75;;;10.07;57.86
24752;BME280;27246;52.376;4.628;2023-04-15T00:56:38;100792.44;;;10.02;57.72
24752;BME280;27246;52.376;4.628;2023-04-15T01:01:40;100789.19;;;9.98;57.98
24752;BME280;27246;52.376;4.628;2023-04-15T01:06:42;100785.03;;;10.02;58.00
24752;BME280;27246;52.376;4.628;2023-04-15T01:11:44;100790.06;;;9.99;57.62
24752;BME280;27246;52.376;4.628;2023-04-15T01:16:46;100785.91;;;10.03;58.37
24752;BME280;27246;52.376;4.628;2023-04-15T01:21:48;100789.69;;;10.02;58.85
24752;BME280;27246;52.376;4.628;2023-04-15T01:26:49;100789.50;;;10.04;58.72
24752;BME280;27246;52.376;4.628;2023-04-15T01:31:52;100784.56;;;9.99;58.63
24752;BME280;27246;52.376;4.628;2023-04-15T01:36:55;100782.75;;;9.83;59.67
24752;BME280;27246;52.376;4.628;2023-04-15T01:41:57;100790.63;;;9.86;59.70
24752;BME280;27246;52.376;4.628;2023-04-15T01:46:59;100793.94;;;9.81;60.15
24752;BME280;27246;52.376;4.628;2023-04-15T01:52:01;100788.38;;;9.67;60.74
24752;BME280;27246;52.376;4.628;2023-04-15T01:57:03;100797.78;;;9.72;61.24
24752;BME280;27246;52.376;4.628;2023-04-15T02:02:06;100802.97;;;9.67;62.00
24752;BME280;27246;52.376;4.628;2023-04-15T02:07:08;100811.25;;;9.59;62.37
24752;BME280;27246;52.376;4.628;2023-04-15T02:12:10;100807.19;;;9.47;63.10
24752;BME280;27246;52.376;4.628;2023-04-15T02:17:12;100813.53;;;9.47;63.86
24752;BME280;27246;52.376;4.628;2023-04-15T02:22:16;100822.00;;;9.29;64.41
24752;BME280;27246;52.376;4.628;2023-04-15T02:27:20;100825.97;;;9.27;65.06
24752;BME280;27246;52.376;4.628;2023-04-15T02:32:23;100832.47;;;9.26;65.37
24752;BME280;27246;52.376;4.628;2023-04-15T02:37:28;100840.72;;;9.26;66.15
24752;BME280;27246;52.376;4.628;2023-04-15T02:42:31;100842.47;;;9.27;65.75
24752;BME280;27246;52.376;4.628;2023-04-15T02:47:34;100843.00;;;9.30;66.11
24752;BME280;27246;52.376;4.628;2023-04-15T02:52:39;100849.84;;;9.26;66.66
24752;BME280;27246;52.376;4.628;2023-04-15T02:57:42;100855.53;;;9.25;67.07
24752;BME280;27246;52.376;4.628;2023-04-15T03:02:45;100854.00;;;9.22;67.13
24752;BME280;27246;52.376;4.628;2023-04-15T03:07:47;100862.91;;;9.16;67.68
24752;BME280;27246;52.376;4.628;2023-04-15T03:12:49;100862.44;;;9.12;67.88
24752;BME280;27246;52.376;4.628;2023-04-15T03:17:53;100868.44;;;9.08;68.37
24752;BME280;27246;52.376;4.628;2023-04-15T03:22:57;100866.72;;;9.07;68.40
24752;BME280;27246;52.376;4.628;2023-04-15T03:27:59;100871.03;;;9.01;69.24
24752;BME280;27246;52.376;4.628;2023-04-15T03:33:01;100878.06;;;9.04;69.44
24752;BME280;27246;52.376;4.628;2023-04-15T03:38:03;100878.41;;;9.00;70.67
24752;BME280;27246;52.376;4.628;2023-04-15T03:43:05;100890.09;;;9.02;71.05
24752;BME280;27246;52.376;4.628;2023-04-15T03:48:09;100883.91;;;9.00;71.91
24752;BME280;27246;52.376;4.628;2023-04-15T03:53:20;100902.63;;;8.89;72.72
24752;BME280;27246;52.376;4.628;2023-04-15T03:58:21;100909.50;;;8.93;73.28
24752;BME280;27246;52.376;4.628;2023-04-15T04:03:23;100912.09;;;8.86;73.77
24752;BME280;27246;52.376;4.628;2023-04-15T04:08:25;100917.41;;;8.88;74.07
24752;BME280;27246;52.376;4.628;2023-04-15T04:13:28;100923.91;;;8.87;74.86
24752;BME280;27246;52.376;4.628;2023-04-15T04:18:31;100925.47;;;8.89;74.78
24752;BME280;27246;52.376;4.628;2023-04-15T04:23:32;100928.72;;;8.85;75.11
24752;BME280;27246;52.376;4.628;2023-04-15T04:28:34;100927.19;;;8.90;75.93
24752;BME280;27246;52.376;4.628;2023-04-15T04:33:37;100934.06;;;8.86;76.39
24752;BME280;27246;52.376;4.628;2023-04-15T04:38:38;100947.63;;;8.96;76.59
24752;BME280;27246;52.376;4.628;2023-04-15T04:43:40;100954.66;;;8.90;76.76
24752;BME280;27246;52.376;4.628;2023-04-15T04:48:42;100952.75;;;8.74;77.55
24752;BME280;27246;52.376;4.628;2023-04-15T04:53:46;100964.75;;;8.57;79.42
24752;BME280;27246;52.376;4.628;2023-04-15T04:58:47;100962.84;;;8.49;79.54
24752;BME280;27246;52.376;4.628;2023-04-15T05:03:49;100972.44;;;8.45;80.18
24752;BME280;27246;52.376;4.628;2023-04-15T05:08:51;100978.59;;;8.39;80.90
24752;BME280;27246;52.376;4.628;2023-04-15T05:13:53;100993.00;;;8.41;81.19
24752;BME280;27246;52.376;4.628;2023-04-15T05:18:54;100995.09;;;8.47;81.84
24752;BME280;27246;52.376;4.628;2023-04-15T05:23:56;101010.88;;;8.45;83.26
24752;BME280;27246;52.376;4.628;2023-04-15T05:28:58;101004.66;;;8.35;84.37
24752;BME280;27246;52.376;4.628;2023-04-15T05:34:02;101021.63;;;8.30;85.18
24752;BME280;27246;52.376;4.628;2023-04-15T05:39:06;101032.63;;;8.30;86.13
24752;BME280;27246;52.376;4.628;2023-04-15T05:44:08;101034.16;;;8.33;86.34
24752;BME280;27246;52.376;4.628;2023-04-15T05:49:09;101049.63;;;8.34;86.60
24752;BME280;27246;52.376;4.628;2023-04-15T05:54:11;101060.94;;;8.39;86.65
24752;BME280;27246;52.376;4.628;2023-04-15T05:59:13;101079.50;;;8.45;86.00
24752;BME280;27246;52.376;4.628;2023-04-15T06:04:15;101082.59;;;8.42;86.07
24752;BME280;27246;52.376;4.628;2023-04-15T06:09:17;101096.16;;;8.44;86.14
24752;BME280;27246;52.376;4.628;2023-04-15T06:14:19;101116.97;;;8.54;85.97
24752;BME280;27246;52.376;4.628;2023-04-15T06:19:21;101117.81;;;8.55;85.83
24752;BME280;27246;52.376;4.628;2023-04-15T06:24:23;101134.97;;;8.57;85.42
24752;BME280;27246;52.376;4.628;2023-04-15T06:29:24;101152.16;;;8.59;85.89
24752;BME280;27246;52.376;4.628;2023-04-15T06:34:26;101157.22;;;8.72;85.63
24752;BME280;27246;52.376;4.628;2023-04-15T06:39:28;101156.84;;;8.75;85.17
24752;BME280;27246;52.376;4.628;2023-04-15T06:44:29;101169.94;;;8.81;85.20
24752;BME280;27246;52.376;4.628;2023-04-15T06:49:34;101180.59;;;8.84;85.09
24752;BME280;27246;52.376;4.628;2023-04-15T06:54:36;101174.75;;;8.87;85.39
24752;BME280;27246;52.376;4.628;2023-04-15T06:59:38;101182.88;;;8.97;85.06
24752;BME280;27246;52.376;4.628;2023-04-15T07:04:40;101190.97;;;8.98;84.74
24752;BME280;27246;52.376;4.628;2023-04-15T07:09:42;101186.38;;;9.15;84.27
24752;BME280;27246;52.376;4.628;2023-04-15T07:14:43;101201.41;;;9.37;83.47
24752;BME280;27246;52.376;4.628;2023-04-15T07:19:45;101211.56;;;9.45;81.11
24752;BME280;27246;52.376;4.628;2023-04-15T07:24:47;101214.34;;;9.53;78.99
24752;BME280;27246;52.376;4.628;2023-04-15T07:29:49;101216.25;;;9.69;75.79
24752;BME280;27246;52.376;4.628;2023-04-15T07:34:52;101228.97;;;9.70;71.74
24752;BME280;27246;52.376;4.628;2023-04-15T07:39:54;101232.44;;;9.97;70.89
24752;BME280;27246;52.376;4.628;2023-04-15T07:44:56;101245.13;;;10.47;69.76
24752;BME280;27246;52.376;4.628;2023-04-15T07:49:58;101250.81;;;10.54;66.65
24752;BME280;27246;52.376;4.628;2023-04-15T07:55:00;101268.56;;;10.51;66.12
24752;BME280;27246;52.376;4.628;2023-04-15T08:00:03;101274.38;;;10.65;66.59
24752;BME280;27246;52.376;4.628;2023-04-15T08:05:14;101294.00;;;10.70;66.31
24752;BME280;27246;52.376;4.628;2023-04-15T08:10:16;101296.41;;;10.89;66.13
24752;BME280;27246;52.376;4.628;2023-04-15T08:15:21;101307.06;;;11.00;64.45
24752;BME280;27246;52.376;4.628;2023-04-15T08:20:23;101311.72;;;11.00;64.93
24752;BME280;27246;52.376;4.628;2023-04-15T08:25:25;101326.19;;;11.50;63.65
24752;BME280;27246;52.376;4.628;2023-04-15T08:30:28;101329.19;;;11.71;61.23
24752;BME280;27246;52.376;4.628;2023-04-15T08:35:29;101331.28;;;11.69;61.40
24752;BME280;27246;52.376;4.628;2023-04-15T08:40:40;101338.84;;;11.75;60.39
24752;BME280;27246;52.376;4.628;2023-04-15T08:45:42;101351.56;;;11.85;59.49
24752;BME280;27246;52.376;4.628;2023-04-15T08:50:46;101366.22;;;11.85;59.18
24752;BME280;27246;52.376;4.628;2023-04-15T08:55:51;101368.94;;;12.16;59.67
24752;BME280;27246;52.376;4.628;2023-04-15T09:00:53;101375.69;;;12.45;56.54
24752;BME280;27246;52.376;4.628;2023-04-15T09:05:56;101377.75;;;12.20;56.84
24752;BME280;27246;52.376;4.628;2023-04-15T09:10:59;101394.78;;;12.32;56.61
24752;BME280;27246;52.376;4.628;2023-04-15T09:16:01;101397.09;;;12.51;56.32
24752;BME280;27246;52.376;4.628;2023-04-15T09:21:09;101393.66;;;12.87;57.00
24752;BME280;27246;52.376;4.628;2023-04-15T09:26:11;101402.53;;;13.35;53.51
24752;BME280;27246;52.376;4.628;2023-04-15T09:31:13;101425.09;;;13.77;52.68
24752;BME280;27246;52.376;4.628;2023-04-15T09:36:16;101433.38;;;13.62;49.58
24752;BME280;27246;52.376;4.628;2023-04-15T09:41:17;101434.38;;;13.16;50.26
24752;BME280;27246;52.376;4.628;2023-04-15T09:46:39;101433.59;;;13.75;52.89
24752;BME280;27246;52.376;4.628;2023-04-15T09:51:41;101445.72;;;13.89;51.40
24752;BME280;27246;52.376;4.628;2023-04-15T09:57:04;101457.09;;;14.31;51.00
24752;BME280;27246;52.376;4.628;2023-04-15T10:02:07;101457.63;;;14.05;50.74
24752;BME280;27246;52.376;4.628;2023-04-15T10:07:11;101462.50;;;13.58;52.13
24752;BME280;27246;52.376;4.628;2023-04-15T10:12:15;101466.59;;;14.07;52.49
24752;BME280;27246;52.376;4.628;2023-04-15T10:17:21;101461.41;;;14.33;51.30
24752;BME280;27246;52.376;4.628;2023-04-15T10:22:23;101473.13;;;14.50;51.37
24752;BME280;27246;52.376;4.628;2023-04-15T10:27:26;101470.75;;;14.69;50.85
24752;BME280;27246;52.376;4.628;2023-04-15T10:32:29;101475.94;;;14.72;50.03
24752;BME280;27246;52.376;4.628;2023-04-15T10:37:36;101479.81;;;14.41;50.15
24752;BME280;27246;52.376;4.628;2023-04-15T10:42:38;101488.19;;;14.63;49.72
24752;BME280;27246;52.376;4.628;2023-04-15T10:47:42;101495.06;;;14.67;49.06
24752;BME280;27246;52.376;4.628;2023-04-15T10:52:44;101487.53;;;14.75;50.72
24752;BME280;27246;52.376;4.628;2023-04-15T10:57:46;101505.78;;;14.70;50.56
24752;BME280;27246;52.376;4.628;2023-04-15T11:07:55;101501.28;;;15.33;47.46
24752;BME280;27246;52.376;4.628;2023-04-15T11:13:02;101503.22;;;15.61;46.61
24752;BME280;27246;52.376;4.628;2023-04-15T11:18:15;101517.34;;;15.66;47.70
24752;BME280;27246;52.376;4.628;2023-04-15T11:23:18;101520.25;;;15.79;48.48
24752;BME280;27246;52.376;4.628;2023-04-15T11:28:27;101527.50;;;15.24;47.67
24752;BME280;27246;52.376;4.628;2023-04-15T11:33:31;101533.78;;;15.61;46.12
24752;BME280;27246;52.376;4.628;2023-04-15T11:38:33;101537.75;;;15.52;45.07
24752;BME280;27246;52.376;4.628;2023-04-15T11:43:34;101547.44;;;15.34;46.76
24752;BME280;27246;52.376;4.628;2023-04-15T11:48:41;101553.38;;;15.31;46.98
24752;BME280;27246;52.376;4.628;2023-04-15T11:53:50;101566.03;;;16.12;44.79
24752;BME280;27246;52.376;4.628;2023-04-15T11:58:54;101568.16;;;15.60;46.05
24752;BME280;27246;52.376;4.628;2023-04-15T12:03:57;101576.34;;;15.68;44.40
24752;BME280;27246;52.376;4.628;2023-04-15T12:09:10;101577.69;;;16.00;43.55
24752;BME280;27246;52.376;4.628;2023-04-15T12:14:29;101587.22;;;15.85;43.85
24752;BME280;27246;52.376;4.628;2023-04-15T12:19:40;101593.00;;;15.90;43.41
24752;BME280;27246;52.376;4.628;2023-04-15T12:24:46;101593.28;;;16.30;43.28
24752;BME280;27246;52.376;4.628;2023-04-15T12:29:50;101609.41;;;16.41;42.45
24752;BME280;27246;52.376;4.628;2023-04-15T12:35:03;101614.13;;;16.12;41.65
24752;BME280;27246;52.376;4.628;2023-04-15T12:40:07;101607.03;;;15.60;43.21
24752;BME280;27246;52.376;4.628;2023-04-15T12:45:09;101617.09;;;15.18;46.42
24752;BME280;27246;52.376;4.628;2023-04-15T12:50:11;101620.25;;;15.58;43.90
24752;BME280;27246;52.376;4.628;2023-04-15T12:55:12;101616.34;;;16.24;42.64
24752;BME280;27246;52.376;4.628;2023-04-15T13:00:14;101627.44;;;16.17;42.86
24752;BME280;27246;52.376;4.628;2023-04-15T13:05:16;101636.78;;;16.09;42.30
24752;BME280;27246;52.376;4.628;2023-04-15T13:10:17;101639.66;;;15.73;44.99
24752;BME280;27246;52.376;4.628;2023-04-15T13:15:19;101640.13;;;15.76;47.82
24752;BME280;27246;52.376;4.628;2023-04-15T13:20:23;101646.59;;;15.84;48.21
24752;BME280;27246;52.376;4.628;2023-04-15T13:25:26;101652.44;;;15.89;48.18
24752;BME280;27246;52.376;4.628;2023-04-15T13:30:28;101655.31;;;15.80;47.82
24752;BME280;27246;52.376;4.628;2023-04-15T13:35:31;101662.69;;;16.16;47.85
24752;BME280;27246;52.376;4.628;2023-04-15T13:40:33;101667.34;;;15.66;49.23
24752;BME280;27246;52.376;4.628;2023-04-15T13:45:35;101677.50;;;15.16;50.25
24752;BME280;27246;52.376;4.628;2023-04-15T13:50:39;101683.22;;;15.72;49.88
24752;BME280;27246;52.376;4.628;2023-04-15T13:55:45;101700.44;;;15.61;49.85
24752;BME280;27246;52.376;4.628;2023-04-15T14:00:47;101699.63;;;15.67;50.26
24752;BME280;27246;52.376;4.628;2023-04-15T14:05:48;101691.78;;;15.71;49.86
24752;BME280;27246;52.376;4.628;2023-04-15T14:10:59;101709.72;;;15.53;50.20
24752;BME280;27246;52.376;4.628;2023-04-15T14:16:00;101723.00;;;15.36;48.06
24752;BME280;27246;52.376;4.628;2023-04-15T14:21:04;101725.41;;;15.25;48.40
24752;BME280;27246;52.376;4.628;2023-04-15T14:26:06;101728.31;;;15.02;48.92
24752;BME280;27246;52.376;4.628;2023-04-15T14:31:08;101732.72;;;15.11;49.07
24752;BME280;27246;52.376;4.628;2023-04-15T14:36:10;101741.22;;;15.24;47.99
24752;BME280;27246;52.376;4.628;2023-04-15T14:41:11;101745.56;;;15.12;49.62
24752;BME280;27246;52.376;4.628;2023-04-15T14:46:13;101754.44;;;15.07;49.41
24752;BME280;27246;52.376;4.628;2023-04-15T14:51:15;101764.38;;;15.02;49.57
24752;BME280;27246;52.376;4.628;2023-04-15T14:56:16;101773.56;;;14.87;48.85
24752;BME280;27246;52.376;4.628;2023-04-15T15:01:19;101777.06;;;14.51;48.67
24752;BME280;27246;52.376;4.628;2023-04-15T15:06:21;101776.06;;;14.44;49.63
24752;BME280;27246;52.376;4.628;2023-04-15T15:11:23;101784.81;;;14.71;50.83
24752;BME280;27246;52.376;4.628;2023-04-15T15:16:26;101790.78;;;14.97;50.00
24752;BME280;27246;52.376;4.628;2023-04-15T15:21:28;101787.06;;;15.05;50.96
24752;BME280;27246;52.376;4.628;2023-04-15T15:26:31;101803.00;;;15.48;49.93
24752;BME280;27246;52.376;4.628;2023-04-15T15:31:34;101816.03;;;15.47;48.64
24752;BME280;27246;52.376;4.628;2023-04-15T15:36:36;101810.97;;;15.36;48.56
24752;BME280;27246;52.376;4.628;2023-04-15T15:41:38;101823.41;;;15.40;49.19
24752;BME280;27246;52.376;4.628;2023-04-15T15:46:40;101824.47;;;15.39;49.76
24752;BME280;27246;52.376;4.628;2023-04-15T15:51:42;101828.09;;;15.39;49.54
24752;BME280;27246;52.376;4.628;2023-04-15T15:56:43;101838.00;;;15.42;49.59
24752;BME280;27246;52.376;4.628;2023-04-15T16:01:45;101853.50;;;15.36;48.67
24752;BME280;27246;52.376;4.628;2023-04-15T16:06:47;101868.44;;;15.20;49.35
24752;BME280;27246;52.376;4.628;2023-04-15T16:11:49;101861.63;;;15.23;49.44
24752;BME280;27246;52.376;4.628;2023-04-15T16:16:51;101884.09;;;14.98;48.44
24752;BME280;27246;52.376;4.628;2023-04-15T16:21:53;101888.94;;;14.82;49.16
24752;BME280;27246;52.376;4.628;2023-04-15T16:26:55;101891.47;;;14.45;50.48
24752;BME280;27246;52.376;4.628;2023-04-15T16:31:59;101901.28;;;14.25;50.72
24752;BME280;27246;52.376;4.628;2023-04-15T16:37:01;101892.84;;;13.95;51.25
24752;BME280;27246;52.376;4.628;2023-04-15T16:42:04;101900.31;;;14.40;51.00
24752;BME280;27246;52.376;4.628;2023-04-15T16:47:08;101908.53;;;14.34;50.25
24752;BME280;27246;52.376;4.628;2023-04-15T16:52:12;101916.56;;;14.20;51.11
24752;BME280;27246;52.376;4.628;2023-04-15T16:57:14;101930.56;;;13.48;51.60
24752;BME280;27246;52.376;4.628;2023-04-15T17:02:17;101935.94;;;13.33;51.85
24752;BME280;27246;52.376;4.628;2023-04-15T17:07:19;101931.47;;;13.08;52.28
24752;BME280;27246;52.376;4.628;2023-04-15T17:12:20;101947.03;;;13.25;53.10
24752;BME280;27246;52.376;4.628;2023-04-15T17:17:22;101943.09;;;13.84;51.82
24752;BME280;27246;52.376;4.628;2023-04-15T17:22:24;101946.66;;;13.92;52.36
24752;BME280;27246;52.376;4.628;2023-04-15T17:27:26;101953.50;;;13.73;52.89
24752;BME280;27246;52.376;4.628;2023-04-15T17:32:29;101967.91;;;13.36;52.43
24752;BME280;27246;52.376;4.628;2023-04-15T17:37:38;101971.09;;;13.16;53.93
24752;BME280;27246;52.376;4.628;2023-04-15T17:42:40;101970.69;;;13.44;52.15
24752;BME280;27246;52.376;4.628;2023-04-15T17:47:41;101965.56;;;12.92;53.50
24752;BME280;27246;52.376;4.628;2023-04-15T17:52:43;101965.34;;;12.60;54.60
24752;BME280;27246;52.376;4.628;2023-04-15T17:57:45;101981.09;;;12.68;55.46
24752;BME280;27246;52.376;4.628;2023-04-15T18:02:46;101979.91;;;13.20;55.25
24752;BME280;27246;52.376;4.628;2023-04-15T18:07:50;101989.94;;;12.96;55.46
24752;BME280;27246;52.376;4.628;2023-04-15T18:12:52;101997.84;;;12.75;55.35
24752;BME280;27246;52.376;4.628;2023-04-15T18:17:54;102004.59;;;13.38;54.26
24752;BME280;27246;52.376;4.628;2023-04-15T18:22:55;102015.66;;;12.72;55.12
24752;BME280;27246;52.376;4.628;2023-04-15T18:27:57;102011.19;;;12.79;55.63
24752;BME280;27246;52.376;4.628;2023-04-15T18:32:59;102012.38;;;13.10;55.02
24752;BME280;27246;52.376;4.628;2023-04-15T18:38:01;102022.88;;;12.57;55.12
24752;BME280;27246;52.376;4.628;2023-04-15T18:43:03;102023.91;;;12.05;56.29
24752;BME280;27246;52.376;4.628;2023-04-15T18:48:04;102030.41;;;11.70;57.53
24752;BME280;27246;52.376;4.628;2023-04-15T18:53:07;102034.34;;;11.93;57.13
24752;BME280;27246;52.376;4.628;2023-04-15T18:58:09;102043.50;;;11.94;57.49
24752;BME280;27246;52.376;4.628;2023-04-15T19:03:11;102051.09;;;11.92;57.55
24752;BME280;27246;52.376;4.628;2023-04-15T19:08:13;102053.56;;;12.03;57.15
24752;BME280;27246;52.376;4.628;2023-04-15T19:13:14;102054.75;;;11.74;56.94
24752;BME280;27246;52.376;4.628;2023-04-15T19:18:20;102056.69;;;12.08;57.40
24752;BME280;27246;52.376;4.628;2023-04-15T19:23:22;102052.34;;;12.32;56.83
24752;BME280;27246;52.376;4.628;2023-04-15T19:28:24;102072.44;;;11.81;56.65
24752;BME280;27246;52.376;4.628;2023-04-15T19:33:28;102073.72;;;11.95;57.00
24752;BME280;27246;52.376;4.628;2023-04-15T19:38:37;102084.97;;;12.02;57.10
24752;BME280;27246;52.376;4.628;2023-04-15T19:43:39;102090.59;;;11.66;57.73
24752;BME280;27246;52.376;4.628;2023-04-15T19:48:41;102090.88;;;11.55;57.33
24752;BME280;27246;52.376;4.628;2023-04-15T19:53:43;102099.03;;;11.38;58.01
24752;BME280;27246;52.376;4.628;2023-04-15T19:58:44;102093.91;;;11.26;58.75
24752;BME280;27246;52.376;4.628;2023-04-15T20:03:52;102096.50;;;11.71;57.80
24752;BME280;27246;52.376;4.628;2023-04-15T20:08:55;102095.44;;;11.46;58.53
24752;BME280;27246;52.376;4.628;2023-04-15T20:13:57;102089.63;;;11.49;58.50
24752;BME280;27246;52.376;4.628;2023-04-15T20:18:59;102084.78;;;11.69;58.46
24752;BME280;27246;52.376;4.628;2023-04-15T20:24:08;102091.75;;;11.37;58.84
24752;BME280;27246;52.376;4.628;2023-04-15T20:29:10;102088.16;;;11.37;58.92
24752;BME280;27246;52.376;4.628;2023-04-15T20:34:12;102087.84;;;11.22;59.86
24752;BME280;27246;52.376;4.628;2023-04-15T20:39:14;102084.00;;;11.59;59.71
24752;BME280;27246;52.376;4.628;2023-04-15T20:44:16;102091.13;;;11.44;59.94
24752;BME280;27246;52.376;4.628;2023-04-15T20:49:17;102084.94;;;11.68;60.49
24752;BME280;27246;52.376;4.628;2023-04-15T20:54:19;102089.75;;;11.66;59.87
24752;BME280;27246;52.376;4.628;2023-04-15T20:59:21;102088.81;;;11.57;60.61
24752;BME280;27246;52.376;4.628;2023-04-15T21:04:23;102082.91;;;11.52;60.67
24752;BME280;27246;52.376;4.628;2023-04-15T21:09:25;102095.56;;;11.36;61.10
24752;BME280;27246;52.376;4.628;2023-04-15T21:14:27;102101.44;;;11.59;60.88
24752;BME280;27246;52.376;4.628;2023-04-15T21:19:28;102089.91;;;11.64;61.58
24752;BME280;27246;52.376;4.628;2023-04-15T21:24:30;102106.28;;;11.21;61.37
24752;BME280;27246;52.376;4.628;2023-04-15T21:29:32;102103.06;;;11.26;61.91
24752;BME280;27246;52.376;4.628;2023-04-15T21:34:34;102114.41;;;11.23;61.85
24752;BME280;27246;52.376;4.628;2023-04-15T21:39:37;102107.38;;;11.11;63.50
24752;BME280;27246;52.376;4.628;2023-04-15T21:44:39;102115.81;;;11.27;62.98
24752;BME280;27246;52.376;4.628;2023-04-15T21:49:41;102121.88;;;11.13;63.83
24752;BME280;27246;52.376;4.628;2023-04-15T21:54:42;102130.88;;;11.15;64.80
24752;BME280;27246;52.376;4.628;2023-04-15T21:59:44;102132.84;;;11.23;64.65
24752;BME280;27246;52.376;4.628;2023-04-15T22:04:46;102136.34;;;11.69;64.71
24752;BME280;27246;52.376;4.628;2023-04-15T22:09:52;102138.78;;;11.98;63.94
24752;BME280;27246;52.376;4.628;2023-04-15T22:14:54;102136.31;;;11.43;64.97
24752;BME280;27246;52.376;4.628;2023-04-15T22:19:56;102137.78;;;11.55;65.25
24752;BME280;27246;52.376;4.628;2023-04-15T22:24:58;102131.81;;;11.41;65.71
24752;BME280;27246;52.376;4.628;2023-04-15T22:29:59;102137.88;;;11.45;65.70
24752;BME280;27246;52.376;4.628;2023-04-15T22:35:01;102145.28;;;11.45;65.72
24752;BME280;27246;52.376;4.628;2023-04-15T22:40:03;102148.28;;;11.51;66.32
24752;BME280;27246;52.376;4.628;2023-04-15T22:45:08;102159.44;;;11.14;66.90
24752;BME280;27246;52.376;4.628;2023-04-15T22:50:10;102150.03;;;11.52;66.38
24752;BME280;27246;52.376;4.628;2023-04-15T22:55:13;102162.84;;;12.06;65.85
24752;BME280;27246;52.376;4.628;2023-04-15T23:00:14;102170.06;;;11.54;68.18
24752;BME280;27246;52.376;4.628;2023-04-15T23:05:16;102173.03;;;11.25;69.35
24752;BME280;27246;52.376;4.628;2023-04-15T23:10:18;102167.34;;;11.80;68.16
24752;BME280;27246;52.376;4.628;2023-04-15T23:15:20;102175.63;;;12.33;66.83
24752;BME280;27246;52.376;4.628;2023-04-15T23:20:22;102176.44;;;11.99;67.46
24752;BME280;27246;52.376;4.628;2023-04-15T23:25:23;102179.81;;;11.31;71.68
24752;BME280;27246;52.376;4.628;2023-04-15T23:30:25;102184.72;;;11.55;71.09
24752;BME280;27246;52.376;4.628;2023-04-15T23:35:27;102191.06;;;11.73;70.45
24752;BME280;27246;52.376;4.628;2023-04-15T23:40:28;102190.59;;;11.42;71.04
24752;BME280;27246;52.376;4.628;2023-04-15T23:45:30;102204.50;;;11.50;71.36
24752;BME280;27246;52.376;4.628;2023-04-15T23:50:32;102196.81;;;11.44;71.99
24752;BME280;27246;52.376;4.628;2023-04-15T23:55:34;102187.22;;;11.30;72.87
